sensor_id;sensor_type;location;lat;lon;timestamp;P1;durP1;ratioP1;P2;durP2;ratioP2
62058;SDS011;48017;51.064;7.014;2023-01-29T00:00:05;30.65;;;15.07;;
62058;SDS011;48017;51.064;7.014;2023-01-29T00:02:34;27.40;;;15.10;;
62058;SDS011;48017;51.064;7.014;2023-01-29T00:05:00;23.42;;;13.65;;
62058;SDS011;48017;51.064;7.014;2023-01-29T00:07:25;27.23;;;15.88;;
62058;SDS011;48017;51.064;7.014;2023-01-29T00:09:51;23.40;;;13.85;;
62058;SDS011;48017;51.064;7.014;2023-01-29T00:12:16;20.85;;;12.38;;
62058;SDS011;48017;51.064;7.014;2023-01-29T00:14:42;22.83;;;12.52;;
62058;SDS011;48017;51.064;7.014;2023-01-29T00:17:07;34.25;;;14.07;;
62058;SDS011;48017;51.064;7.014;2023-01-29T00:19:34;25.77;;;13.73;;
62058;SDS011;48017;51.064;7.014;2023-01-29T00:21:59;22.23;;;13.13;;
62058;SDS011;48017;51.064;7.014;2023-01-29T00:24:25;21.63;;;13.05;;
62058;SDS011;48017;51.064;7.014;2023-01-29T00:26:50;23.92;;;14.00;;
62058;SDS011;48017;51.064;7.014;2023-01-29T00:29:16;19.63;;;11.35;;
62058;SDS011;48017;51.064;7.014;2023-01-29T00:31:43;21.30;;;12.27;;
62058;SDS011;48017;51.064;7.014;2023-01-29T00:34:08;24.30;;;13.18;;
62058;SDS011;48017;51.064;7.014;2023-01-29T00:36:34;25.40;;;13.70;;
62058;SDS011;48017;51.064;7.014;2023-01-29T00:38:59;21.77;;;12.60;;
62058;SDS011;48017;51.064;7.014;2023-01-29T00:41:27;24.42;;;15.13;;
62058;SDS011;48017;51.064;7.014;2023-01-29T00:44:12;26.83;;;15.65;;
62058;SDS011;48017;51.064;7.014;2023-01-29T00:46:56;19.77;;;12.48;;
62058;SDS011;48017;51.064;7.014;2023-01-29T00:49:22;24.90;;;13.45;;
62058;SDS011;48017;51.064;7.014;2023-01-29T00:51:47;22.38;;;13.15;;
62058;SDS011;48017;51.064;7.014;2023-01-29T00:54:33;22.63;;;12.38;;
62058;SDS011;48017;51.064;7.014;2023-01-29T00:56:59;24.70;;;13.07;;
62058;SDS011;48017;51.064;7.014;2023-01-29T00:59:25;24.95;;;12.45;;
62058;SDS011;48017;51.064;7.014;2023-01-29T01:01:50;19.70;;;12.25;;
62058;SDS011;48017;51.064;7.014;2023-01-29T01:04:34;24.35;;;12.43;;
62058;SDS011;48017;51.064;7.014;2023-01-29T01:06:59;21.58;;;12.27;;
62058;SDS011;48017;51.064;7.014;2023-01-29T01:09:24;25.83;;;13.85;;
62058;SDS011;48017;51.064;7.014;2023-01-29T01:12:28;20.75;;;12.85;;
62058;SDS011;48017;51.064;7.014;2023-01-29T01:14:54;15.52;;;10.15;;
62058;SDS011;48017;51.064;7.014;2023-01-29T01:17:19;22.65;;;13.18;;
62058;SDS011;48017;51.064;7.014;2023-01-29T01:19:45;26.02;;;12.68;;
62058;SDS011;48017;51.064;7.014;2023-01-29T01:22:10;22.27;;;12.13;;
62058;SDS011;48017;51.064;7.014;2023-01-29T01:24:36;23.90;;;14.25;;
62058;SDS011;48017;51.064;7.014;2023-01-29T01:27:02;20.98;;;11.35;;
62058;SDS011;48017;51.064;7.014;2023-01-29T01:29:27;22.95;;;13.07;;
62058;SDS011;48017;51.064;7.014;2023-01-29T01:31:53;20.95;;;12.98;;
62058;SDS011;48017;51.064;7.014;2023-01-29T01:34:18;22.42;;;13.00;;
62058;SDS011;48017;51.064;7.014;2023-01-29T01:36:44;29.13;;;12.93;;
62058;SDS011;48017;51.064;7.014;2023-01-29T01:39:09;26.27;;;12.80;;
62058;SDS011;48017;51.064;7.014;2023-01-29T01:41:34;18.73;;;10.70;;
62058;SDS011;48017;51.064;7.014;2023-01-29T01:44:01;17.23;;;10.43;;
62058;SDS011;48017;51.064;7.014;2023-01-29T01:46:28;22.00;;;12.63;;
62058;SDS011;48017;51.064;7.014;2023-01-29T01:49:01;21.73;;;11.95;;
62058;SDS011;48017;51.064;7.014;2023-01-29T01:51:37;20.35;;;11.88;;
62058;SDS011;48017;51.064;7.014;2023-01-29T01:54:08;22.08;;;11.68;;
62058;SDS011;48017;51.064;7.014;2023-01-29T01:56:39;20.63;;;12.75;;
62058;SDS011;48017;51.064;7.014;2023-01-29T01:59:11;19.98;;;12.10;;
62058;SDS011;48017;51.064;7.014;2023-01-29T02:01:40;21.23;;;11.43;;
62058;SDS011;48017;51.064;7.014;2023-01-29T02:04:09;25.05;;;13.68;;
62058;SDS011;48017;51.064;7.014;2023-01-29T02:06:59;20.85;;;11.43;;
62058;SDS011;48017;51.064;7.014;2023-01-29T02:09:49;17.10;;;10.27;;
62058;SDS011;48017;51.064;7.014;2023-01-29T02:12:17;16.52;;;9.68;;
62058;SDS011;48017;51.064;7.014;2023-01-29T02:14:43;20.95;;;11.02;;
62058;SDS011;48017;51.064;7.014;2023-01-29T02:17:16;19.65;;;11.93;;
62058;SDS011;48017;51.064;7.014;2023-01-29T02:38:35;16.05;;;9.50;;
62058;SDS011;48017;51.064;7.014;2023-01-29T02:43:50;19.08;;;11.10;;
62058;SDS011;48017;51.064;7.014;2023-01-29T02:51:35;17.42;;;10.35;;
62058;SDS011;48017;51.064;7.014;2023-01-29T02:56:59;16.52;;;9.60;;
62058;SDS011;48017;51.064;7.014;2023-01-29T02:59:41;13.05;;;8.57;;
62058;SDS011;48017;51.064;7.014;2023-01-29T03:02:12;19.60;;;11.18;;
62058;SDS011;48017;51.064;7.014;2023-01-29T03:04:43;15.35;;;9.40;;
62058;SDS011;48017;51.064;7.014;2023-01-29T03:07:19;20.95;;;11.95;;
62058;SDS011;48017;51.064;7.014;2023-01-29T03:12:46;18.40;;;10.90;;
62058;SDS011;48017;51.064;7.014;2023-01-29T03:15:21;18.85;;;10.75;;
62058;SDS011;48017;51.064;7.014;2023-01-29T03:20:22;16.02;;;9.43;;
62058;SDS011;48017;51.064;7.014;2023-01-29T03:22:55;18.67;;;10.70;;
62058;SDS011;48017;51.064;7.014;2023-01-29T03:25:25;17.45;;;10.77;;
62058;SDS011;48017;51.064;7.014;2023-01-29T03:28:11;18.20;;;10.20;;
62058;SDS011;48017;51.064;7.014;2023-01-29T03:31:00;16.63;;;11.30;;
62058;SDS011;48017;51.064;7.014;2023-01-29T03:33:57;18.70;;;11.65;;
62058;SDS011;48017;51.064;7.014;2023-01-29T03:36:45;18.85;;;9.45;;
62058;SDS011;48017;51.064;7.014;2023-01-29T03:39:14;13.57;;;8.55;;
62058;SDS011;48017;51.064;7.014;2023-01-29T03:41:44;16.40;;;10.32;;
62058;SDS011;48017;51.064;7.014;2023-01-29T03:47:17;17.02;;;10.55;;
62058;SDS011;48017;51.064;7.014;2023-01-29T03:49:55;15.95;;;9.73;;
62058;SDS011;48017;51.064;7.014;2023-01-29T03:52:52;19.38;;;10.27;;
62058;SDS011;48017;51.064;7.014;2023-01-29T03:56:03;17.17;;;9.18;;
62058;SDS011;48017;51.064;7.014;2023-01-29T04:00:55;15.95;;;9.63;;
62058;SDS011;48017;51.064;7.014;2023-01-29T04:03:34;16.08;;;9.48;;
62058;SDS011;48017;51.064;7.014;2023-01-29T04:06:19;20.38;;;8.52;;
62058;SDS011;48017;51.064;7.014;2023-01-29T04:11:22;15.80;;;9.20;;
62058;SDS011;48017;51.064;7.014;2023-01-29T04:13:49;15.20;;;8.23;;
62058;SDS011;48017;51.064;7.014;2023-01-29T04:16:27;17.77;;;9.98;;
62058;SDS011;48017;51.064;7.014;2023-01-29T04:18:57;17.42;;;10.05;;
62058;SDS011;48017;51.064;7.014;2023-01-29T04:21:23;16.25;;;9.63;;
62058;SDS011;48017;51.064;7.014;2023-01-29T04:23:49;18.83;;;9.82;;
62058;SDS011;48017;51.064;7.014;2023-01-29T04:26:23;19.45;;;10.70;;
62058;SDS011;48017;51.064;7.014;2023-01-29T04:29:31;17.42;;;9.80;;
62058;SDS011;48017;51.064;7.014;2023-01-29T04:32:25;18.83;;;10.13;;
62058;SDS011;48017;51.064;7.014;2023-01-29T04:34:58;14.70;;;9.50;;
62058;SDS011;48017;51.064;7.014;2023-01-29T04:40:22;18.90;;;10.68;;
62058;SDS011;48017;51.064;7.014;2023-01-29T04:43:05;19.55;;;10.57;;
62058;SDS011;48017;51.064;7.014;2023-01-29T04:48:40;17.00;;;8.95;;
62058;SDS011;48017;51.064;7.014;2023-01-29T04:54:13;17.48;;;10.88;;
62058;SDS011;48017;51.064;7.014;2023-01-29T04:59:26;12.07;;;8.60;;
62058;SDS011;48017;51.064;7.014;2023-01-29T05:01:58;14.25;;;8.90;;
62058;SDS011;48017;51.064;7.014;2023-01-29T05:04:24;14.70;;;9.82;;
62058;SDS011;48017;51.064;7.014;2023-01-29T05:06:51;18.58;;;9.27;;
62058;SDS011;48017;51.064;7.014;2023-01-29T05:09:17;19.52;;;11.00;;
62058;SDS011;48017;51.064;7.014;2023-01-29T05:11:44;20.20;;;10.43;;
62058;SDS011;48017;51.064;7.014;2023-01-29T05:14:11;17.95;;;10.68;;
62058;SDS011;48017;51.064;7.014;2023-01-29T05:16:41;18.83;;;10.30;;
62058;SDS011;48017;51.064;7.014;2023-01-29T05:19:12;16.00;;;10.70;;
62058;SDS011;48017;51.064;7.014;2023-01-29T05:21:40;21.83;;;10.65;;
62058;SDS011;48017;51.064;7.014;2023-01-29T05:24:09;23.17;;;11.27;;
62058;SDS011;48017;51.064;7.014;2023-01-29T05:26:37;15.00;;;10.23;;
62058;SDS011;48017;51.064;7.014;2023-01-29T05:29:20;19.85;;;10.43;;
62058;SDS011;48017;51.064;7.014;2023-01-29T05:31:46;18.10;;;10.60;;
62058;SDS011;48017;51.064;7.014;2023-01-29T05:34:11;16.67;;;10.50;;
62058;SDS011;48017;51.064;7.014;2023-01-29T05:36:37;18.42;;;10.55;;
62058;SDS011;48017;51.064;7.014;2023-01-29T05:39:02;17.60;;;10.85;;
62058;SDS011;48017;51.064;7.014;2023-01-29T05:41:28;20.92;;;13.60;;
62058;SDS011;48017;51.064;7.014;2023-01-29T05:43:53;16.85;;;10.38;;
62058;SDS011;48017;51.064;7.014;2023-01-29T05:46:18;20.98;;;11.10;;
62058;SDS011;48017;51.064;7.014;2023-01-29T05:48:44;17.33;;;10.88;;
62058;SDS011;48017;51.064;7.014;2023-01-29T05:51:09;15.15;;;10.63;;
62058;SDS011;48017;51.064;7.014;2023-01-29T05:53:35;17.75;;;11.10;;
62058;SDS011;48017;51.064;7.014;2023-01-29T05:56:00;21.35;;;12.88;;
62058;SDS011;48017;51.064;7.014;2023-01-29T05:58:27;18.95;;;11.20;;
62058;SDS011;48017;51.064;7.014;2023-01-29T06:00:54;33.15;;;12.05;;
62058;SDS011;48017;51.064;7.014;2023-01-29T06:03:20;19.00;;;11.05;;
62058;SDS011;48017;51.064;7.014;2023-01-29T06:05:45;27.67;;;13.55;;
62058;SDS011;48017;51.064;7.014;2023-01-29T06:08:10;24.45;;;11.32;;
62058;SDS011;48017;51.064;7.014;2023-01-29T06:10:36;23.83;;;10.70;;
62058;SDS011;48017;51.064;7.014;2023-01-29T06:13:01;24.23;;;12.82;;
62058;SDS011;48017;51.064;7.014;2023-01-29T06:15:27;29.85;;;12.25;;
62058;SDS011;48017;51.064;7.014;2023-01-29T06:17:52;21.65;;;11.60;;
62058;SDS011;48017;51.064;7.014;2023-01-29T06:20:18;27.98;;;11.18;;
62058;SDS011;48017;51.064;7.014;2023-01-29T06:22:44;25.48;;;13.43;;
62058;SDS011;48017;51.064;7.014;2023-01-29T06:25:09;20.90;;;11.25;;
62058;SDS011;48017;51.064;7.014;2023-01-29T06:27:34;17.58;;;10.57;;
62058;SDS011;48017;51.064;7.014;2023-01-29T06:30:00;23.88;;;11.93;;
62058;SDS011;48017;51.064;7.014;2023-01-29T06:32:26;16.88;;;9.48;;
62058;SDS011;48017;51.064;7.014;2023-01-29T06:34:51;16.90;;;10.65;;
62058;SDS011;48017;51.064;7.014;2023-01-29T06:37:17;28.42;;;14.85;;
62058;SDS011;48017;51.064;7.014;2023-01-29T06:39:42;21.75;;;12.10;;
62058;SDS011;48017;51.064;7.014;2023-01-29T06:42:08;17.95;;;10.20;;
62058;SDS011;48017;51.064;7.014;2023-01-29T06:44:35;17.25;;;10.00;;
62058;SDS011;48017;51.064;7.014;2023-01-29T06:47:00;23.27;;;10.73;;
62058;SDS011;48017;51.064;7.014;2023-01-29T06:49:25;15.70;;;10.63;;
62058;SDS011;48017;51.064;7.014;2023-01-29T06:51:51;21.67;;;11.50;;
62058;SDS011;48017;51.064;7.014;2023-01-29T06:54:16;18.90;;;9.55;;
62058;SDS011;48017;51.064;7.014;2023-01-29T06:56:41;17.35;;;10.30;;
62058;SDS011;48017;51.064;7.014;2023-01-29T06:59:07;19.42;;;10.38;;
62058;SDS011;48017;51.064;7.014;2023-01-29T07:01:32;18.60;;;10.27;;
62058;SDS011;48017;51.064;7.014;2023-01-29T07:03:57;17.00;;;10.48;;
62058;SDS011;48017;51.064;7.014;2023-01-29T07:06:28;20.33;;;11.10;;
62058;SDS011;48017;51.064;7.014;2023-01-29T07:08:54;18.08;;;10.35;;
62058;SDS011;48017;51.064;7.014;2023-01-29T07:11:20;22.50;;;11.63;;
62058;SDS011;48017;51.064;7.014;2023-01-29T07:13:45;17.92;;;11.20;;
62058;SDS011;48017;51.064;7.014;2023-01-29T07:16:11;20.63;;;11.18;;
62058;SDS011;48017;51.064;7.014;2023-01-29T07:18:36;22.13;;;11.85;;
62058;SDS011;48017;51.064;7.014;2023-01-29T07:21:05;22.50;;;12.77;;
62058;SDS011;48017;51.064;7.014;2023-01-29T07:23:31;20.17;;;11.70;;
62058;SDS011;48017;51.064;7.014;2023-01-29T07:26:01;24.02;;;11.02;;
62058;SDS011;48017;51.064;7.014;2023-01-29T07:28:28;21.73;;;11.88;;
62058;SDS011;48017;51.064;7.014;2023-01-29T07:30:57;20.85;;;9.30;;
62058;SDS011;48017;51.064;7.014;2023-01-29T07:33:22;17.20;;;10.02;;
62058;SDS011;48017;51.064;7.014;2023-01-29T07:35:48;13.68;;;8.77;;
62058;SDS011;48017;51.064;7.014;2023-01-29T07:38:13;18.35;;;10.95;;
62058;SDS011;48017;51.064;7.014;2023-01-29T07:40:39;20.38;;;12.00;;
62058;SDS011;48017;51.064;7.014;2023-01-29T07:43:05;21.23;;;12.32;;
62058;SDS011;48017;51.064;7.014;2023-01-29T07:45:35;19.90;;;10.77;;
62058;SDS011;48017;51.064;7.014;2023-01-29T07:48:03;21.25;;;8.90;;
62058;SDS011;48017;51.064;7.014;2023-01-29T07:50:30;23.20;;;12.43;;
62058;SDS011;48017;51.064;7.014;2023-01-29T07:52:56;29.45;;;15.10;;
62058;SDS011;48017;51.064;7.014;2023-01-29T07:55:22;21.65;;;11.77;;
62058;SDS011;48017;51.064;7.014;2023-01-29T07:57:53;35.83;;;15.82;;
62058;SDS011;48017;51.064;7.014;2023-01-29T08:00:22;15.93;;;8.27;;
62058;SDS011;48017;51.064;7.014;2023-01-29T08:02:48;28.65;;;15.95;;
62058;SDS011;48017;51.064;7.014;2023-01-29T08:05:13;22.70;;;12.50;;
62058;SDS011;48017;51.064;7.014;2023-01-29T08:07:38;24.10;;;13.95;;
62058;SDS011;48017;51.064;7.014;2023-01-29T08:10:04;23.35;;;12.73;;
62058;SDS011;48017;51.064;7.014;2023-01-29T08:12:30;21.42;;;11.85;;
62058;SDS011;48017;51.064;7.014;2023-01-29T08:14:55;19.05;;;11.27;;
62058;SDS011;48017;51.064;7.014;2023-01-29T08:17:21;24.75;;;12.25;;
62058;SDS011;48017;51.064;7.014;2023-01-29T08:19:46;22.80;;;11.63;;
62058;SDS011;48017;51.064;7.014;2023-01-29T08:22:11;21.40;;;10.40;;
62058;SDS011;48017;51.064;7.014;2023-01-29T08:24:37;17.77;;;10.23;;
62058;SDS011;48017;51.064;7.014;2023-01-29T08:27:02;22.13;;;11.43;;
62058;SDS011;48017;51.064;7.014;2023-01-29T08:29:27;21.42;;;10.55;;
62058;SDS011;48017;51.064;7.014;2023-01-29T08:31:53;20.90;;;12.00;;
62058;SDS011;48017;51.064;7.014;2023-01-29T08:34:18;21.02;;;11.38;;
62058;SDS011;48017;51.064;7.014;2023-01-29T08:36:43;17.05;;;9.25;;
62058;SDS011;48017;51.064;7.014;2023-01-29T08:39:09;17.27;;;10.80;;
62058;SDS011;48017;51.064;7.014;2023-01-29T08:41:34;28.38;;;13.48;;
62058;SDS011;48017;51.064;7.014;2023-01-29T08:44:00;19.65;;;12.13;;
62058;SDS011;48017;51.064;7.014;2023-01-29T08:48:53;16.83;;;10.32;;
62058;SDS011;48017;51.064;7.014;2023-01-29T08:51:19;34.60;;;15.20;;
62058;SDS011;48017;51.064;7.014;2023-01-29T08:53:45;28.20;;;14.30;;
62058;SDS011;48017;51.064;7.014;2023-01-29T08:56:10;23.55;;;12.93;;
62058;SDS011;48017;51.064;7.014;2023-01-29T08:58:36;31.30;;;15.07;;
62058;SDS011;48017;51.064;7.014;2023-01-29T09:01:12;25.77;;;12.18;;
62058;SDS011;48017;51.064;7.014;2023-01-29T09:03:38;18.60;;;10.65;;
62058;SDS011;48017;51.064;7.014;2023-01-29T09:06:11;23.27;;;11.80;;
62058;SDS011;48017;51.064;7.014;2023-01-29T09:08:38;20.90;;;12.43;;
62058;SDS011;48017;51.064;7.014;2023-01-29T09:11:04;24.58;;;13.05;;
62058;SDS011;48017;51.064;7.014;2023-01-29T09:13:30;22.30;;;14.02;;
62058;SDS011;48017;51.064;7.014;2023-01-29T09:15:59;22.98;;;13.63;;
62058;SDS011;48017;51.064;7.014;2023-01-29T09:18:26;10.95;;;6.32;;
62058;SDS011;48017;51.064;7.014;2023-01-29T09:20:51;22.02;;;11.55;;
62058;SDS011;48017;51.064;7.014;2023-01-29T09:23:17;35.83;;;15.07;;
62058;SDS011;48017;51.064;7.014;2023-01-29T09:25:42;21.00;;;12.73;;
62058;SDS011;48017;51.064;7.014;2023-01-29T09:28:08;19.17;;;11.50;;
62058;SDS011;48017;51.064;7.014;2023-01-29T09:30:33;27.75;;;13.73;;
62058;SDS011;48017;51.064;7.014;2023-01-29T09:33:01;37.05;;;19.58;;
62058;SDS011;48017;51.064;7.014;2023-01-29T09:35:28;30.80;;;16.27;;
62058;SDS011;48017;51.064;7.014;2023-01-29T09:37:53;18.58;;;10.10;;
62058;SDS011;48017;51.064;7.014;2023-01-29T09:40:41;25.02;;;10.60;;
62058;SDS011;48017;51.064;7.014;2023-01-29T09:43:12;33.42;;;17.20;;
62058;SDS011;48017;51.064;7.014;2023-01-29T09:45:52;19.83;;;11.75;;
62058;SDS011;48017;51.064;7.014;2023-01-29T09:48:22;11.07;;;6.68;;
62058;SDS011;48017;51.064;7.014;2023-01-29T09:50:52;16.33;;;9.70;;
62058;SDS011;48017;51.064;7.014;2023-01-29T09:53:39;39.50;;;20.33;;
62058;SDS011;48017;51.064;7.014;2023-01-29T09:56:15;29.70;;;16.10;;
62058;SDS011;48017;51.064;7.014;2023-01-29T09:58:44;24.52;;;13.57;;
62058;SDS011;48017;51.064;7.014;2023-01-29T10:01:11;19.73;;;13.13;;
62058;SDS011;48017;51.064;7.014;2023-01-29T10:06:52;32.40;;;15.82;;
62058;SDS011;48017;51.064;7.014;2023-01-29T10:09:31;31.98;;;15.18;;
62058;SDS011;48017;51.064;7.014;2023-01-29T10:12:05;27.30;;;13.18;;
62058;SDS011;48017;51.064;7.014;2023-01-29T10:17:36;17.15;;;9.90;;
62058;SDS011;48017;51.064;7.014;2023-01-29T10:23:42;17.15;;;9.73;;
62058;SDS011;48017;51.064;7.014;2023-01-29T10:26:14;31.67;;;15.25;;
62058;SDS011;48017;51.064;7.014;2023-01-29T10:28:43;28.25;;;12.80;;
62058;SDS011;48017;51.064;7.014;2023-01-29T10:31:14;21.92;;;12.38;;
62058;SDS011;48017;51.064;7.014;2023-01-29T10:33:47;22.60;;;12.07;;
62058;SDS011;48017;51.064;7.014;2023-01-29T10:37:00;16.75;;;9.80;;
62058;SDS011;48017;51.064;7.014;2023-01-29T10:39:13;23.90;;;13.18;;
62058;SDS011;48017;51.064;7.014;2023-01-29T10:50:22;19.52;;;10.77;;
62058;SDS011;48017;51.064;7.014;2023-01-29T10:58:49;19.80;;;11.15;;
62058;SDS011;48017;51.064;7.014;2023-01-29T11:01:17;19.65;;;10.80;;
62058;SDS011;48017;51.064;7.014;2023-01-29T11:03:43;18.48;;;12.13;;
62058;SDS011;48017;51.064;7.014;2023-01-29T11:11:30;26.17;;;13.25;;
62058;SDS011;48017;51.064;7.014;2023-01-29T11:16:31;24.73;;;12.38;;
62058;SDS011;48017;51.064;7.014;2023-01-29T11:19:05;35.03;;;17.95;;
62058;SDS011;48017;51.064;7.014;2023-01-29T11:21:31;23.45;;;13.27;;
62058;SDS011;48017;51.064;7.014;2023-01-29T11:24:06;17.30;;;10.50;;
62058;SDS011;48017;51.064;7.014;2023-01-29T11:26:38;28.65;;;14.90;;
62058;SDS011;48017;51.064;7.014;2023-01-29T11:29:25;23.90;;;11.93;;
62058;SDS011;48017;51.064;7.014;2023-01-29T11:31:54;16.50;;;9.25;;
62058;SDS011;48017;51.064;7.014;2023-01-29T11:34:22;17.05;;;9.98;;
62058;SDS011;48017;51.064;7.014;2023-01-29T11:37:22;22.02;;;12.75;;
62058;SDS011;48017;51.064;7.014;2023-01-29T11:39:44;20.42;;;11.32;;
62058;SDS011;48017;51.064;7.014;2023-01-29T11:42:17;30.00;;;14.23;;
62058;SDS011;48017;51.064;7.014;2023-01-29T11:44:45;26.23;;;13.82;;
62058;SDS011;48017;51.064;7.014;2023-01-29T11:49:39;30.95;;;15.63;;
62058;SDS011;48017;51.064;7.014;2023-01-29T11:52:09;30.67;;;16.67;;
62058;SDS011;48017;51.064;7.014;2023-01-29T11:54:37;22.60;;;11.88;;
62058;SDS011;48017;51.064;7.014;2023-01-29T12:05:55;35.38;;;16.90;;
62058;SDS011;48017;51.064;7.014;2023-01-29T12:08:24;19.13;;;8.98;;
62058;SDS011;48017;51.064;7.014;2023-01-29T12:13:58;26.20;;;13.55;;
62058;SDS011;48017;51.064;7.014;2023-01-29T12:19:52;24.05;;;12.57;;
62058;SDS011;48017;51.064;7.014;2023-01-29T12:22:22;35.00;;;18.20;;
62058;SDS011;48017;51.064;7.014;2023-01-29T12:24:55;22.88;;;11.60;;
62058;SDS011;48017;51.064;7.014;2023-01-29T12:29:55;21.98;;;12.38;;
62058;SDS011;48017;51.064;7.014;2023-01-29T12:32:40;27.63;;;13.65;;
62058;SDS011;48017;51.064;7.014;2023-01-29T12:35:21;24.35;;;12.50;;
62058;SDS011;48017;51.064;7.014;2023-01-29T12:40:32;24.00;;;12.95;;
62058;SDS011;48017;51.064;7.014;2023-01-29T12:43:05;23.40;;;12.05;;
62058;SDS011;48017;51.064;7.014;2023-01-29T12:45:39;23.92;;;12.07;;
62058;SDS011;48017;51.064;7.014;2023-01-29T12:50:36;16.58;;;9.88;;
62058;SDS011;48017;51.064;7.014;2023-01-29T12:55:54;22.25;;;10.82;;
62058;SDS011;48017;51.064;7.014;2023-01-29T12:58:26;24.98;;;12.00;;
62058;SDS011;48017;51.064;7.014;2023-01-29T13:00:58;25.13;;;13.80;;
62058;SDS011;48017;51.064;7.014;2023-01-29T13:03:32;28.67;;;14.10;;
62058;SDS011;48017;51.064;7.014;2023-01-29T13:05:59;29.10;;;15.70;;
62058;SDS011;48017;51.064;7.014;2023-01-29T13:08:44;32.33;;;15.60;;
62058;SDS011;48017;51.064;7.014;2023-01-29T13:14:00;15.82;;;10.25;;
62058;SDS011;48017;51.064;7.014;2023-01-29T13:16:35;24.23;;;12.57;;
62058;SDS011;48017;51.064;7.014;2023-01-29T13:19:05;20.80;;;11.18;;
62058;SDS011;48017;51.064;7.014;2023-01-29T13:21:42;18.05;;;10.50;;
62058;SDS011;48017;51.064;7.014;2023-01-29T13:24:16;32.55;;;17.27;;
62058;SDS011;48017;51.064;7.014;2023-01-29T13:26:45;25.55;;;12.13;;
62058;SDS011;48017;51.064;7.014;2023-01-29T13:29:24;23.95;;;12.77;;
62058;SDS011;48017;51.064;7.014;2023-01-29T13:31:56;27.60;;;14.40;;
62058;SDS011;48017;51.064;7.014;2023-01-29T13:37:09;18.63;;;11.25;;
62058;SDS011;48017;51.064;7.014;2023-01-29T13:39:45;18.23;;;9.20;;
62058;SDS011;48017;51.064;7.014;2023-01-29T13:42:20;26.55;;;14.77;;
62058;SDS011;48017;51.064;7.014;2023-01-29T13:45:02;19.00;;;10.70;;
62058;SDS011;48017;51.064;7.014;2023-01-29T13:47:31;24.63;;;13.40;;
62058;SDS011;48017;51.064;7.014;2023-01-29T13:50:02;24.90;;;11.75;;
62058;SDS011;48017;51.064;7.014;2023-01-29T13:52:35;21.55;;;10.35;;
62058;SDS011;48017;51.064;7.014;2023-01-29T14:05:38;27.83;;;14.07;;
62058;SDS011;48017;51.064;7.014;2023-01-29T14:10:39;25.75;;;13.30;;
62058;SDS011;48017;51.064;7.014;2023-01-29T14:15:43;20.85;;;11.38;;
62058;SDS011;48017;51.064;7.014;2023-01-29T14:26:05;17.88;;;9.88;;
62058;SDS011;48017;51.064;7.014;2023-01-29T14:28:42;23.75;;;10.48;;
62058;SDS011;48017;51.064;7.014;2023-01-29T14:31:26;21.73;;;11.57;;
62058;SDS011;48017;51.064;7.014;2023-01-29T14:33:53;24.30;;;12.40;;
62058;SDS011;48017;51.064;7.014;2023-01-29T14:36:25;17.88;;;9.88;;
62058;SDS011;48017;51.064;7.014;2023-01-29T14:38:52;21.40;;;11.40;;
62058;SDS011;48017;51.064;7.014;2023-01-29T14:46:56;22.63;;;11.18;;
62058;SDS011;48017;51.064;7.014;2023-01-29T14:52:12;20.23;;;10.70;;
62058;SDS011;48017;51.064;7.014;2023-01-29T14:54:39;19.90;;;10.50;;
62058;SDS011;48017;51.064;7.014;2023-01-29T14:57:07;18.42;;;10.55;;
62058;SDS011;48017;51.064;7.014;2023-01-29T14:59:37;19.27;;;11.05;;
62058;SDS011;48017;51.064;7.014;2023-01-29T15:04:45;21.52;;;11.55;;
62058;SDS011;48017;51.064;7.014;2023-01-29T15:09:52;22.60;;;11.27;;
62058;SDS011;48017;51.064;7.014;2023-01-29T15:15:16;21.17;;;10.65;;
62058;SDS011;48017;51.064;7.014;2023-01-29T15:20:37;23.10;;;11.25;;
62058;SDS011;48017;51.064;7.014;2023-01-29T15:23:22;19.23;;;10.52;;
62058;SDS011;48017;51.064;7.014;2023-01-29T15:25:49;20.40;;;10.25;;
62058;SDS011;48017;51.064;7.014;2023-01-29T15:28:17;24.80;;;11.40;;
62058;SDS011;48017;51.064;7.014;2023-01-29T15:30:42;30.38;;;13.45;;
62058;SDS011;48017;51.064;7.014;2023-01-29T15:33:09;28.23;;;12.43;;
62058;SDS011;48017;51.064;7.014;2023-01-29T15:35:41;24.17;;;11.73;;
62058;SDS011;48017;51.064;7.014;2023-01-29T15:38:15;22.83;;;11.50;;
62058;SDS011;48017;51.064;7.014;2023-01-29T15:40:41;30.77;;;12.65;;
62058;SDS011;48017;51.064;7.014;2023-01-29T15:43:30;22.00;;;11.45;;
62058;SDS011;48017;51.064;7.014;2023-01-29T15:46:01;23.63;;;13.85;;
62058;SDS011;48017;51.064;7.014;2023-01-29T15:48:37;33.53;;;12.38;;
62058;SDS011;48017;51.064;7.014;2023-01-29T15:51:07;23.50;;;11.43;;
62058;SDS011;48017;51.064;7.014;2023-01-29T15:53:35;25.60;;;11.98;;
62058;SDS011;48017;51.064;7.014;2023-01-29T15:56:08;21.38;;;11.50;;
62058;SDS011;48017;51.064;7.014;2023-01-29T15:58:35;24.08;;;11.98;;
62058;SDS011;48017;51.064;7.014;2023-01-29T16:01:01;21.88;;;11.98;;
62058;SDS011;48017;51.064;7.014;2023-01-29T16:03:29;23.50;;;12.35;;
62058;SDS011;48017;51.064;7.014;2023-01-29T16:05:57;22.45;;;12.35;;
62058;SDS011;48017;51.064;7.014;2023-01-29T16:08:23;26.17;;;13.20;;
62058;SDS011;48017;51.064;7.014;2023-01-29T16:10:52;23.70;;;12.50;;
62058;SDS011;48017;51.064;7.014;2023-01-29T16:15:53;18.55;;;11.48;;
62058;SDS011;48017;51.064;7.014;2023-01-29T16:18:40;23.10;;;11.93;;
62058;SDS011;48017;51.064;7.014;2023-01-29T16:23:50;17.38;;;10.20;;
62058;SDS011;48017;51.064;7.014;2023-01-29T16:26:19;25.20;;;13.05;;
62058;SDS011;48017;51.064;7.014;2023-01-29T16:28:48;23.05;;;11.82;;
62058;SDS011;48017;51.064;7.014;2023-01-29T16:31:19;19.52;;;11.02;;
62058;SDS011;48017;51.064;7.014;2023-01-29T16:33:51;19.70;;;10.93;;
62058;SDS011;48017;51.064;7.014;2023-01-29T16:36:18;22.88;;;11.75;;
62058;SDS011;48017;51.064;7.014;2023-01-29T16:38:48;17.52;;;9.73;;
62058;SDS011;48017;51.064;7.014;2023-01-29T16:43:51;10.40;;;5.38;;
62058;SDS011;48017;51.064;7.014;2023-01-29T16:48:44;11.85;;;4.15;;
62058;SDS011;48017;51.064;7.014;2023-01-29T16:51:12;9.05;;;4.05;;
62058;SDS011;48017;51.064;7.014;2023-01-29T16:53:51;6.50;;;3.78;;
62058;SDS011;48017;51.064;7.014;2023-01-29T16:56:19;8.27;;;3.83;;
62058;SDS011;48017;51.064;7.014;2023-01-29T16:58:50;6.47;;;3.92;;
62058;SDS011;48017;51.064;7.014;2023-01-29T17:01:18;7.65;;;4.38;;
62058;SDS011;48017;51.064;7.014;2023-01-29T17:03:49;11.25;;;5.43;;
62058;SDS011;48017;51.064;7.014;2023-01-29T17:06:22;13.38;;;5.22;;
62058;SDS011;48017;51.064;7.014;2023-01-29T17:08:50;10.43;;;5.13;;
62058;SDS011;48017;51.064;7.014;2023-01-29T17:11:23;12.52;;;5.03;;
62058;SDS011;48017;51.064;7.014;2023-01-29T17:13:56;9.27;;;5.22;;
62058;SDS011;48017;51.064;7.014;2023-01-29T17:18:53;15.02;;;5.75;;
62058;SDS011;48017;51.064;7.014;2023-01-29T17:21:18;8.07;;;4.47;;
62058;SDS011;48017;51.064;7.014;2023-01-29T17:23:44;10.90;;;5.78;;
62058;SDS011;48017;51.064;7.014;2023-01-29T17:26:10;9.82;;;4.82;;
62058;SDS011;48017;51.064;7.014;2023-01-29T17:28:37;8.52;;;4.90;;
62058;SDS011;48017;51.064;7.014;2023-01-29T17:31:03;9.98;;;5.47;;
62058;SDS011;48017;51.064;7.014;2023-01-29T17:33:29;4.28;;;2.25;;
62058;SDS011;48017;51.064;7.014;2023-01-29T17:35:54;8.35;;;4.90;;
62058;SDS011;48017;51.064;7.014;2023-01-29T17:38:20;11.63;;;6.20;;